Time;durP1;ratioP1;P1;durP2;ratioP2;P2;SDS_P1;SDS_P2;PMS_P1;PMS_P2;Temp;Humidity;BMP_temperature;BMP_pressure;BME280_temperature;BME280_humidity;BME280_pressure;Samples;Min_cycle;Max_cycle;Signal;HPM_P1;HPM_P2
2024/03/04 00:01:48;;;;;;;9.93;7.47;;;8.70;99.90;;;;;;5053757;28;20613;-63
2024/03/04 00:04:15;;;;;;;9.23;7.03;;;8.70;99.90;;;;;;5053491;28;20205;-63
2024/03/04 00:06:41;;;;;;;11.47;7.70;;;8.70;99.90;;;;;;5053589;28;20221;-62
2024/03/04 00:09:09;;;;;;;8.90;7.17;;;8.80;99.90;;;;;;5053629;28;20201;-62
2024/03/04 00:11:36;;;;;;;10.93;8.20;;;8.80;99.90;;;;;;5053316;28;20240;-63
2024/03/04 00:14:02;;;;;;;9.57;7.60;;;8.80;99.90;;;;;;5053333;28;20210;-63
2024/03/04 00:16:29;;;;;;;10.70;7.40;;;8.90;99.90;;;;;;5052994;28;20676;-64
2024/03/04 00:18:57;;;;;;;10.27;7.83;;;8.90;99.90;;;;;;5053536;28;20491;-63
2024/03/04 00:21:24;;;;;;;11.27;8.37;;;8.90;99.90;;;;;;5053291;28;20406;-63
2024/03/04 00:23:51;;;;;;;9.07;7.67;;;9.00;99.90;;;;;;5053195;28;20202;-63
2024/03/04 00:26:17;;;;;;;10.63;7.60;;;9.10;99.90;;;;;;5054358;28;20255;-63
2024/03/04 00:28:44;;;;;;;11.07;8.00;;;9.20;99.90;;;;;;5053378;28;20201;-63
2024/03/04 00:31:12;;;;;;;10.73;8.73;;;9.20;99.90;;;;;;5053621;28;20213;-63
2024/03/04 00:33:39;;;;;;;13.63;9.83;;;9.30;99.90;;;;;;5052874;28;20297;-63
2024/03/04 00:36:07;;;;;;;14.67;10.40;;;9.30;99.90;;;;;;5052542;28;20259;-63
2024/03/04 00:38:34;;;;;;;13.80;10.93;;;9.40;99.90;;;;;;5052806;28;20221;-63
2024/03/04 00:41:01;;;;;;;14.47;10.87;;;9.40;99.90;;;;;;5053138;28;20603;-63
2024/03/04 00:43:28;;;;;;;14.13;10.53;;;9.40;99.90;;;;;;5052530;28;20583;-63
2024/03/04 00:45:55;;;;;;;13.37;10.20;;;9.50;99.90;;;;;;5052609;28;20201;-63
2024/03/04 00:48:21;;;;;;;13.47;10.83;;;9.50;99.90;;;;;;5052951;28;20205;-63
2024/03/04 00:50:49;;;;;;;13.90;11.00;;;9.50;99.90;;;;;;5052706;28;20209;-63
2024/03/04 00:53:17;;;;;;;13.97;10.90;;;9.50;99.90;;;;;;5052934;28;20206;-63
2024/03/04 00:55:43;;;;;;;15.07;11.17;;;9.50;99.90;;;;;;5052677;28;20296;-63
2024/03/04 00:58:10;;;;;;;15.33;10.37;;;9.50;99.90;;;;;;5052631;28;20231;-63
2024/03/04 01:00:37;;;;;;;13.57;10.70;;;9.50;99.90;;;;;;5052641;28;20300;-63
2024/03/04 01:03:04;;;;;;;14.73;10.97;;;9.50;99.90;;;;;;5052421;28;20205;-63
2024/03/04 01:05:31;;;;;;;15.63;11.30;;;9.50;99.90;;;;;;5052367;28;20201;-63
2024/03/04 01:07:57;;;;;;;14.90;11.10;;;9.50;99.90;;;;;;5052277;28;20228;-62
2024/03/04 01:10:24;;;;;;;16.53;12.53;;;9.50;99.90;;;;;;5052507;28;20209;-63
2024/03/04 01:12:51;;;;;;;15.50;11.10;;;9.50;99.90;;;;;;5036842;28;20209;-62
2024/03/04 01:15:18;;;;;;;16.73;12.20;;;9.50;99.90;;;;;;5052595;28;20201;-63
2024/03/04 01:17:46;;;;;;;13.77;11.37;;;9.40;99.90;;;;;;5052097;28;20225;-63
2024/03/04 01:20:13;;;;;;;15.60;11.80;;;9.50;99.90;;;;;;5052193;28;20280;-63
2024/03/04 01:22:40;;;;;;;16.93;12.40;;;9.40;99.90;;;;;;5052016;28;20212;-63
2024/03/04 01:25:09;;;;;;;16.13;11.70;;;9.40;99.90;;;;;;5052437;28;20205;-63
2024/03/04 01:27:37;;;;;;;14.67;11.70;;;9.40;99.90;;;;;;5052277;28;20225;-63
2024/03/04 01:30:04;;;;;;;15.83;12.23;;;9.40;99.90;;;;;;5052049;28;20209;-63
2024/03/04 01:32:31;;;;;;;15.80;12.17;;;9.40;99.90;;;;;;5051853;28;20208;-63
2024/03/04 01:34:57;;;;;;;16.43;12.03;;;9.30;99.90;;;;;;5052021;28;20197;-63
2024/03/04 01:37:24;;;;;;;15.30;12.13;;;9.30;99.90;;;;;;5052036;28;20272;-63
2024/03/04 01:39:51;;;;;;;15.37;11.60;;;9.30;99.90;;;;;;5036070;28;20202;-63
2024/03/04 01:42:17;;;;;;;14.47;11.47;;;9.30;99.90;;;;;;5051773;28;20209;-63
2024/03/04 01:44:45;;;;;;;14.77;11.33;;;9.30;99.90;;;;;;5051867;28;20292;-63
2024/03/04 01:47:17;;;;;;;13.87;11.73;;;9.30;99.90;;;;;;5050861;28;20233;-63
2024/03/04 01:49:45;;;;;;;15.27;12.17;;;9.20;99.90;;;;;;5051825;28;20217;-62
2024/03/04 01:52:12;;;;;;;14.63;11.30;;;9.20;99.90;;;;;;5051658;28;20255;-63
2024/03/04 01:54:41;;;;;;;15.20;10.73;;;9.20;99.90;;;;;;5051799;28;20205;-63
2024/03/04 01:57:09;;;;;;;14.17;11.57;;;9.20;99.90;;;;;;5051740;28;20217;-63
2024/03/04 01:59:37;;;;;;;15.43;11.33;;;9.30;99.90;;;;;;5051747;28;20202;-63
2024/03/04 02:02:06;;;;;;;15.13;11.50;;;9.30;99.90;;;;;;5051850;28;20553;-63
2024/03/04 02:04:34;;;;;;;14.53;11.57;;;9.40;99.90;;;;;;5051745;28;20289;-62
2024/03/04 02:07:03;;;;;;;13.73;11.10;;;9.50;99.90;;;;;;5051834;28;20270;-63
2024/03/04 02:09:31;;;;;;;14.57;11.53;;;9.50;99.90;;;;;;5051760;28;20205;-63
2024/03/04 02:11:59;;;;;;;13.33;10.63;;;9.60;99.90;;;;;;5052152;28;20197;-63
2024/03/04 02:14:26;;;;;;;13.27;10.97;;;9.70;99.90;;;;;;5052088;28;20732;-62
2024/03/04 02:16:53;;;;;;;13.27;10.13;;;9.80;99.90;;;;;;5052106;28;20225;-60
2024/03/04 02:19:21;;;;;;;13.03;10.43;;;10.00;99.90;;;;;;5051879;28;20221;-62
2024/03/04 02:21:52;;;;;;;13.17;9.97;;;10.10;99.90;;;;;;5051670;28;20265;-62
2024/03/04 02:24:20;;;;;;;11.77;9.97;;;10.10;99.90;;;;;;5051655;28;20205;-61
2024/03/04 02:26:47;;;;;;;12.70;9.87;;;10.10;99.90;;;;;;5051221;28;20611;-63
2024/03/04 02:29:14;;;;;;;14.90;9.60;;;10.10;99.90;;;;;;5051631;28;20205;-63
2024/03/04 02:31:41;;;;;;;13.87;10.50;;;10.30;99.90;;;;;;5051416;28;20695;-62
2024/03/04 02:34:09;;;;;;;10.50;9.10;;;10.40;99.90;;;;;;5051480;28;20617;-63
2024/03/04 02:36:38;;;;;;;13.43;9.67;;;10.50;99.90;;;;;;5051398;28;20226;-63
2024/03/04 02:39:10;;;;;;;9.73;8.73;;;10.70;99.90;;;;;;5051480;28;20519;-63
2024/03/04 02:41:38;;;;;;;13.53;9.23;;;10.70;99.90;;;;;;5051240;28;20648;-63
2024/03/04 02:44:05;;;;;;;10.00;9.00;;;10.70;99.90;;;;;;5051185;28;20205;-63
2024/03/04 02:46:32;;;;;;;10.13;8.73;;;10.70;99.90;;;;;;5050983;28;20320;-63
2024/03/04 02:48:59;;;;;;;10.03;8.63;;;10.80;99.90;;;;;;5051282;28;20619;-63
2024/03/04 02:51:25;;;;;;;12.47;9.20;;;10.80;99.90;;;;;;5051311;28;20214;-62
2024/03/04 02:53:52;;;;;;;10.30;8.73;;;10.70;99.90;;;;;;5050915;28;20280;-62
2024/03/04 02:56:19;;;;;;;12.53;9.60;;;10.80;99.90;;;;;;5051320;28;20225;-63
2024/03/04 02:58:47;;;;;;;12.83;10.20;;;10.80;99.90;;;;;;5052505;28;20706;-63
2024/03/04 03:01:13;;;;;;;12.83;10.70;;;10.80;99.90;;;;;;5055005;28;20633;-63
2024/03/04 03:03:40;;;;;;;13.57;10.30;;;10.80;99.90;;;;;;5054627;28;20209;-62
2024/03/04 03:06:07;;;;;;;12.67;10.53;;;10.60;99.90;;;;;;5054831;28;20201;-63
2024/03/04 03:08:34;;;;;;;12.83;10.60;;;10.80;99.90;;;;;;5054590;28;20211;-62
2024/03/04 03:11:01;;;;;;;12.13;10.87;;;10.60;99.90;;;;;;5054696;28;20624;-63
2024/03/04 03:13:28;;;;;;;12.93;10.50;;;10.60;99.90;;;;;;5054446;28;20209;-63
2024/03/04 03:15:56;;;;;;;13.87;11.03;;;10.60;99.90;;;;;;5038779;28;20255;-63
2024/03/04 03:18:22;;;;;;;12.67;10.80;;;10.60;99.90;;;;;;5054585;28;20229;-63
2024/03/04 03:20:49;;;;;;;14.43;10.80;;;10.60;99.90;;;;;;5054628;28;20201;-63
2024/03/04 03:23:16;;;;;;;13.17;10.93;;;10.70;99.90;;;;;;5054176;28;20213;-63
2024/03/04 03:25:42;;;;;;;13.57;11.23;;;10.80;99.90;;;;;;5054508;28;20206;-63
2024/03/04 03:28:09;;;;;;;16.43;12.23;;;10.80;99.90;;;;;;5054437;28;20222;-63
2024/03/04 03:30:36;;;;;;;13.80;11.80;;;10.70;99.90;;;;;;5054136;28;20666;-64
2024/03/04 03:33:04;;;;;;;14.03;11.73;;;10.60;99.90;;;;;;5053960;28;20670;-62
2024/03/04 03:35:31;;;;;;;14.47;12.10;;;10.50;99.90;;;;;;5054025;28;20690;-63
2024/03/04 03:37:57;;;;;;;13.90;11.60;;;10.50;99.90;;;;;;5053891;28;20217;-63
2024/03/04 03:40:24;;;;;;;13.70;11.43;;;10.50;99.90;;;;;;5054273;28;20263;-62
2024/03/04 03:42:51;;;;;;;15.43;12.33;;;10.70;99.90;;;;;;5053986;28;20228;-63
2024/03/04 03:45:18;;;;;;;15.87;12.10;;;10.70;99.90;;;;;;5054151;28;20352;-63
2024/03/04 03:47:44;;;;;;;15.27;12.77;;;10.60;99.90;;;;;;5073230;22;20279;-57
2024/03/04 03:50:12;;;;;;;15.57;13.43;;;10.40;99.90;;;;;;5042403;28;20260;-55
2024/03/04 03:52:39;;;;;;;17.63;13.27;;;10.40;99.90;;;;;;5043237;28;20214;-56
2024/03/04 03:55:06;;;;;;;16.47;13.27;;;10.60;99.90;;;;;;5045769;28;20663;-55
2024/03/04 03:57:32;;;;;;;15.03;12.80;;;10.70;99.90;;;;;;5037076;28;20230;-57
2024/03/04 03:59:59;;;;;;;15.87;13.63;;;10.80;99.90;;;;;;5033977;28;20597;-55
2024/03/04 04:02:26;;;;;;;15.53;13.00;;;10.90;99.90;;;;;;5033566;28;20206;-56
2024/03/04 04:04:52;;;;;;;15.80;13.37;;;11.00;99.90;;;;;;5033836;28;20202;-55
2024/03/04 04:07:21;;;;;;;16.80;13.87;;;11.10;99.90;;;;;;5033854;28;20234;-56
2024/03/04 04:09:47;;;;;;;25.00;21.90;;;11.20;99.90;;;;;;5032870;28;20284;-56
2024/03/04 04:12:14;;;;;;;20.57;16.83;;;11.20;99.90;;;;;;5033195;28;20689;-55
2024/03/04 04:14:41;;;;;;;17.47;14.67;;;11.30;99.90;;;;;;5033670;28;20311;-57
2024/03/04 04:17:08;;;;;;;19.93;14.53;;;11.30;99.90;;;;;;5033468;28;20254;-55
2024/03/04 04:19:35;;;;;;;18.63;14.53;;;11.20;99.90;;;;;;5033303;28;20715;-55
2024/03/04 04:22:01;;;;;;;18.20;14.00;;;11.20;99.90;;;;;;5033569;28;20206;-55
2024/03/04 04:24:29;;;;;;;20.03;15.23;;;11.20;99.90;;;;;;5033188;28;20210;-55
2024/03/04 04:26:56;;;;;;;24.73;20.63;;;11.20;99.90;;;;;;5017357;28;20230;-55
2024/03/04 04:29:23;;;;;;;19.20;15.30;;;11.30;99.90;;;;;;5033454;28;20202;-55
2024/03/04 04:31:49;;;;;;;19.10;15.67;;;11.40;99.90;;;;;;5033160;28;20206;-57
2024/03/04 04:34:16;;;;;;;17.40;14.30;;;11.30;99.90;;;;;;5032936;28;20214;-55
2024/03/04 04:36:48;;;;;;;20.23;15.37;;;11.30;99.90;;;;;;5033218;28;20238;-55
2024/03/04 04:39:15;;;;;;;19.40;16.00;;;11.40;99.90;;;;;;5033331;28;20313;-55
2024/03/04 04:41:43;;;;;;;22.17;15.90;;;11.40;99.90;;;;;;5033013;28;20209;-56
2024/03/04 04:44:10;;;;;;;21.27;16.43;;;11.40;99.90;;;;;;5032592;28;20210;-57
2024/03/04 04:46:37;;;;;;;21.37;15.60;;;11.40;99.90;;;;;;5032685;28;20302;-55
2024/03/04 04:49:03;;;;;;;22.77;15.80;;;11.40;99.90;;;;;;5033131;28;20221;-56
2024/03/04 04:51:30;;;;;;;19.30;15.40;;;11.40;99.90;;;;;;5033028;28;20229;-55
2024/03/04 04:53:57;;;;;;;23.33;16.27;;;11.50;99.90;;;;;;5032776;28;20214;-55
2024/03/04 04:56:24;;;;;;;20.53;16.33;;;11.50;99.90;;;;;;5032798;28;20585;-56
2024/03/04 04:58:52;;;;;;;20.23;16.20;;;11.40;99.90;;;;;;5032557;28;20225;-55
2024/03/04 05:01:25;;;;;;;22.77;17.10;;;11.40;99.90;;;;;;5032688;28;20209;-55
2024/03/04 05:03:53;;;;;;;23.93;16.73;;;11.40;99.90;;;;;;5032653;28;20290;-54
2024/03/04 05:06:20;;;;;;;21.90;16.83;;;11.40;99.90;;;;;;5032693;28;20205;-54
2024/03/04 05:08:46;;;;;;;23.97;16.93;;;11.40;99.90;;;;;;5032533;28;20209;-54
2024/03/04 05:11:13;;;;;;;21.83;17.53;;;11.40;99.90;;;;;;5032675;28;20263;-54
2024/03/04 05:13:40;;;;;;;22.97;17.70;;;11.40;99.90;;;;;;5032094;28;20271;-56
2024/03/04 05:16:09;;;;;;;20.37;16.07;;;11.50;99.90;;;;;;5032961;28;20252;-54
2024/03/04 05:18:36;;;;;;;22.60;16.97;;;11.40;99.90;;;;;;5032325;28;20226;-54
2024/03/04 05:21:04;;;;;;;21.23;16.93;;;11.40;99.90;;;;;;5032689;28;20198;-54
2024/03/04 05:23:31;;;;;;;22.07;17.90;;;11.30;99.90;;;;;;5032328;28;20620;-54
2024/03/04 05:25:57;;;;;;;21.50;17.20;;;11.30;99.90;;;;;;5016788;28;20199;-54
2024/03/04 05:28:24;;;;;;;23.70;17.03;;;11.50;99.90;;;;;;5032534;28;20222;-56
2024/03/04 05:30:51;;;;;;;22.23;17.77;;;11.50;99.90;;;;;;5032256;28;20210;-55
2024/03/04 05:33:19;;;;;;;23.37;18.10;;;11.60;99.90;;;;;;5032265;28;20211;-54
2024/03/04 05:35:45;;;;;;;23.60;17.67;;;11.50;99.90;;;;;;5032124;28;20210;-54
2024/03/04 05:38:12;;;;;;;24.30;18.03;;;11.50;99.90;;;;;;5032101;28;20276;-54
2024/03/04 05:40:39;;;;;;;23.47;17.77;;;11.50;99.90;;;;;;5032714;28;20206;-54
2024/03/04 05:43:07;;;;;;;24.50;19.00;;;11.50;99.90;;;;;;5032062;28;20291;-55
2024/03/04 05:45:34;;;;;;;24.03;17.90;;;11.50;99.90;;;;;;5031863;28;20237;-55
2024/03/04 05:48:01;;;;;;;22.90;18.27;;;11.50;99.90;;;;;;5031881;28;20317;-55
2024/03/04 05:50:29;;;;;;;24.97;18.40;;;11.60;99.90;;;;;;5032238;28;20203;-55
2024/03/04 05:52:55;;;;;;;22.57;18.07;;;11.50;99.90;;;;;;5031800;28;20217;-54
2024/03/04 05:55:22;;;;;;;24.87;18.70;;;11.50;99.90;;;;;;5031819;28;20312;-54
2024/03/04 05:57:49;;;;;;;23.73;17.30;;;11.60;99.90;;;;;;5032018;28;20222;-54
2024/03/04 06:00:16;;;;;;;25.73;18.70;;;11.60;99.90;;;;;;5032476;28;20230;-54
2024/03/04 06:02:43;;;;;;;24.30;18.93;;;11.70;99.90;;;;;;5032176;28;20210;-54
2024/03/04 06:05:11;;;;;;;22.40;17.90;;;11.60;99.90;;;;;;5032146;28;20203;-54
2024/03/04 06:07:39;;;;;;;26.33;18.17;;;11.60;99.90;;;;;;5031432;28;20729;-54
2024/03/04 06:10:06;;;;;;;23.30;18.63;;;11.60;99.90;;;;;;5031650;28;20745;-55
2024/03/04 06:12:33;;;;;;;27.93;20.00;;;11.60;99.90;;;;;;5031242;28;20210;-57
2024/03/04 06:15:00;;;;;;;27.83;20.27;;;11.60;99.90;;;;;;5031451;28;20198;-55
2024/03/04 06:17:27;;;;;;;26.93;20.10;;;11.60;99.90;;;;;;5031534;28;20230;-54
2024/03/04 06:19:54;;;;;;;26.30;19.83;;;11.60;99.90;;;;;;5031360;28;20298;-54
2024/03/04 06:22:21;;;;;;;27.00;20.13;;;11.70;99.90;;;;;;5031181;28;20207;-54
2024/03/04 06:24:49;;;;;;;25.70;19.57;;;11.70;99.90;;;;;;5031869;28;20207;-54
2024/03/04 06:27:16;;;;;;;26.00;19.87;;;11.60;99.90;;;;;;5031753;28;20241;-55
2024/03/04 06:29:43;;;;;;;27.53;20.03;;;11.70;99.90;;;;;;5031239;28;20630;-55
2024/03/04 06:32:10;;;;;;;26.70;20.57;;;11.70;99.90;;;;;;5031359;28;20205;-55
2024/03/04 06:34:36;;;;;;;27.50;20.03;;;11.70;99.90;;;;;;5034432;28;20218;-55
2024/03/04 06:37:03;;;;;;;30.53;21.00;;;11.60;99.90;;;;;;5035130;28;20221;-54
2024/03/04 06:39:30;;;;;;;30.30;20.87;;;11.70;99.90;;;;;;5035622;28;20221;-55
2024/03/04 06:41:58;;;;;;;27.43;19.40;;;11.70;99.90;;;;;;5035173;28;20256;-55
2024/03/04 06:44:24;;;;;;;26.07;19.57;;;11.60;99.90;;;;;;5034876;28;20210;-55
2024/03/04 06:46:51;;;;;;;28.87;20.30;;;11.70;99.90;;;;;;5034682;28;20238;-54
2024/03/04 06:49:18;;;;;;;28.77;20.00;;;11.60;99.90;;;;;;5035234;28;20256;-54
2024/03/04 06:51:44;;;;;;;27.13;20.23;;;11.60;99.90;;;;;;5034766;28;20206;-55
2024/03/04 06:54:11;;;;;;;29.70;20.20;;;11.50;99.90;;;;;;5035011;28;20198;-54
2024/03/04 06:56:38;;;;;;;27.13;19.93;;;11.60;99.90;;;;;;5034933;28;20230;-55
2024/03/04 06:59:06;;;;;;;30.73;21.17;;;11.70;99.90;;;;;;5034744;28;20275;-54
2024/03/04 07:01:32;;;;;;;28.97;20.23;;;11.70;99.90;;;;;;5034938;28;20210;-55
2024/03/04 07:03:59;;;;;;;28.77;21.17;;;11.60;99.90;;;;;;5034426;28;20202;-54
2024/03/04 07:06:26;;;;;;;28.07;20.67;;;11.60;99.90;;;;;;5035084;28;20228;-54
2024/03/04 07:08:52;;;;;;;29.93;21.57;;;11.60;99.90;;;;;;5034587;28;20703;-55
2024/03/04 07:11:19;;;;;;;30.13;21.17;;;11.60;99.90;;;;;;5034693;28;20210;-54
2024/03/04 07:13:46;;;;;;;29.00;21.13;;;11.70;99.90;;;;;;5034660;28;20224;-54
2024/03/04 07:16:15;;;;;;;29.53;21.50;;;11.80;99.90;;;;;;5034596;28;20206;-55
2024/03/04 07:18:42;;;;;;;31.27;20.90;;;11.70;99.90;;;;;;5034286;28;20202;-55
2024/03/04 07:21:09;;;;;;;32.37;21.50;;;11.70;99.90;;;;;;5034480;28;20206;-56
2024/03/04 07:23:37;;;;;;;34.67;22.23;;;11.70;99.90;;;;;;5034038;28;20272;-55
2024/03/04 07:26:06;;;;;;;34.97;22.57;;;11.70;99.90;;;;;;5034419;28;20208;-55
2024/03/04 07:28:33;;;;;;;31.80;22.67;;;11.70;99.90;;;;;;5034320;28;20313;-55
2024/03/04 07:31:00;;;;;;;31.73;22.47;;;11.70;99.90;;;;;;5034268;28;20206;-54
2024/03/04 07:33:28;;;;;;;31.57;23.10;;;11.70;99.90;;;;;;5034254;28;20210;-56
2024/03/04 07:35:55;;;;;;;36.23;23.07;;;11.70;99.90;;;;;;5034565;28;20206;-54
2024/03/04 07:38:21;;;;;;;35.27;22.83;;;11.60;99.90;;;;;;5034122;28;20651;-55
2024/03/04 07:40:48;;;;;;;34.37;22.97;;;11.60;99.90;;;;;;5034110;28;20309;-54
2024/03/04 07:43:15;;;;;;;33.87;23.33;;;11.60;99.90;;;;;;5034009;28;20222;-54
2024/03/04 07:45:41;;;;;;;33.67;22.87;;;11.70;99.90;;;;;;5032767;28;20207;-55
2024/03/04 07:48:08;;;;;;;34.67;23.87;;;11.70;99.90;;;;;;5033696;28;20234;-55
2024/03/04 07:50:36;;;;;;;36.97;24.93;;;11.80;99.90;;;;;;5034015;28;20198;-53
2024/03/04 07:53:03;;;;;;;39.73;24.57;;;11.80;99.90;;;;;;5018122;28;20478;-54
2024/03/04 07:55:30;;;;;;;37.23;25.03;;;11.90;99.90;;;;;;5033984;28;20206;-55
2024/03/04 07:57:58;;;;;;;42.60;26.87;;;11.80;99.90;;;;;;5033766;28;20234;-54
2024/03/04 08:00:25;;;;;;;36.47;23.40;;;11.70;99.90;;;;;;5033586;28;20222;-55
2024/03/04 08:02:51;;;;;;;42.47;25.57;;;11.80;99.90;;;;;;5033651;28;20206;-59
2024/03/04 08:05:18;;;;;;;41.33;26.20;;;11.90;99.90;;;;;;5033643;28;20206;-56
2024/03/04 08:07:46;;;;;;;41.27;26.17;;;12.00;99.90;;;;;;5033694;28;20221;-55
2024/03/04 08:10:13;;;;;;;40.63;27.00;;;12.10;99.90;;;;;;5033588;28;20198;-56
2024/03/04 08:12:40;;;;;;;43.43;25.90;;;12.20;99.90;;;;;;5033171;28;20206;-56
2024/03/04 08:15:08;;;;;;;40.90;26.20;;;12.20;99.90;;;;;;5033489;28;20313;-56
2024/03/04 08:17:35;;;;;;;40.20;26.87;;;12.20;99.90;;;;;;5033684;28;20309;-56
2024/03/04 08:20:01;;;;;;;41.07;26.37;;;12.30;99.90;;;;;;5033406;28;20719;-57
2024/03/04 08:22:29;;;;;;;39.30;26.03;;;12.30;99.90;;;;;;5033439;28;20212;-56
2024/03/04 08:24:57;;;;;;;41.23;26.70;;;12.30;99.90;;;;;;5033327;28;20218;-57
2024/03/04 08:27:24;;;;;;;38.77;26.37;;;12.20;99.90;;;;;;5034008;28;20222;-56
2024/03/04 08:29:51;;;;;;;40.40;25.93;;;12.20;99.90;;;;;;5033548;28;20228;-57
2024/03/04 08:32:17;;;;;;;37.73;25.13;;;12.20;99.90;;;;;;5033012;28;20214;-56
2024/03/04 08:34:47;;;;;;;36.30;25.67;;;12.30;99.90;;;;;;5033154;28;20206;-57
2024/03/04 08:37:14;;;;;;;39.87;26.03;;;12.20;99.90;;;;;;5033461;28;20268;-56
2024/03/04 08:39:41;;;;;;;43.70;24.73;;;12.10;99.90;;;;;;5033408;28;20222;-57
2024/03/04 08:42:09;;;;;;;40.80;25.37;;;12.10;99.90;;;;;;5032577;28;20229;-59
2024/03/04 08:44:36;;;;;;;41.43;24.53;;;12.00;99.90;;;;;;5032903;28;20512;-57
2024/03/04 08:47:03;;;;;;;43.27;26.77;;;12.00;99.90;;;;;;5016607;28;20233;-56
2024/03/04 08:49:30;;;;;;;37.63;24.87;;;12.10;99.90;;;;;;5033065;28;20206;-56
2024/03/04 08:51:57;;;;;;;39.97;25.07;;;12.00;99.90;;;;;;5032834;28;20672;-57
2024/03/04 08:54:25;;;;;;;40.07;25.20;;;11.90;99.90;;;;;;5032584;28;20237;-56
2024/03/04 08:56:52;;;;;;;34.97;25.20;;;11.80;99.90;;;;;;5032438;28;20270;-57
2024/03/04 08:59:20;;;;;;;38.70;24.37;;;11.80;99.90;;;;;;5032964;28;20209;-57
2024/03/04 09:01:47;;;;;;;46.03;26.10;;;11.90;99.90;;;;;;5032595;28;20207;-56
2024/03/04 09:04:13;;;;;;;45.23;27.47;;;11.90;99.90;;;;;;5032299;28;20276;-56
2024/03/04 09:06:40;;;;;;;42.93;26.10;;;11.80;99.90;;;;;;5032375;28;20234;-56
2024/03/04 09:09:08;;;;;;;41.47;26.93;;;11.90;99.90;;;;;;5032310;28;20676;-56
2024/03/04 09:11:35;;;;;;;45.50;26.80;;;12.00;99.90;;;;;;5032297;28;20202;-58
2024/03/04 09:14:01;;;;;;;45.00;26.60;;;12.00;99.90;;;;;;5032096;28;20202;-56
2024/03/04 09:16:29;;;;;;;45.73;27.33;;;12.00;99.90;;;;;;5032379;28;20276;-55
2024/03/04 09:18:56;;;;;;;48.67;28.27;;;12.10;99.90;;;;;;5032159;28;20213;-56
2024/03/04 09:21:24;;;;;;;42.37;26.57;;;12.00;99.90;;;;;;5032227;28;20225;-61
2024/03/04 09:23:52;;;;;;;46.63;27.53;;;11.90;99.90;;;;;;5031964;28;20210;-58
2024/03/04 09:26:19;;;;;;;47.27;29.33;;;12.00;99.90;;;;;;5032977;28;20681;-55
2024/03/04 09:28:50;;;;;;;49.57;27.17;;;12.00;99.90;;;;;;5032908;28;20672;-56
2024/03/04 09:31:16;;;;;;;50.60;28.43;;;11.90;99.90;;;;;;5032680;28;20297;-56
2024/03/04 09:33:45;;;;;;;50.47;28.27;;;12.00;99.90;;;;;;5031633;28;20790;-56
2024/03/04 09:36:12;;;;;;;50.77;28.40;;;12.00;99.90;;;;;;5031885;28;20345;-55
2024/03/04 09:38:39;;;;;;;48.93;27.37;;;12.00;99.90;;;;;;5032167;28;20210;-54
2024/03/04 09:41:06;;;;;;;43.97;27.00;;;12.00;99.90;;;;;;5016188;28;20284;-57
2024/03/04 09:43:37;;;;;;;48.30;28.00;;;12.10;99.90;;;;;;5031850;28;20218;-53
2024/03/04 09:46:06;;;;;;;49.95;29.70;;;12.00;99.90;;;;;;5025847;28;20437;-62
2024/03/04 09:48:34;;;;;;;54.10;29.00;;;12.00;99.90;;;;;;5070740;22;20295;-63
2024/03/04 09:51:02;;;;;;;45.73;28.73;;;12.00;99.90;;;;;;5051171;28;20201;-63
2024/03/04 09:53:32;;;;;;;47.20;28.33;;;12.20;99.90;;;;;;5051237;28;20206;-66
2024/03/04 09:55:59;;;;;;;50.33;30.33;;;12.20;99.90;;;;;;5051422;28;20236;-64
2024/03/04 09:58:26;;;;;;;48.13;28.37;;;12.30;99.90;;;;;;5043323;28;20233;-64
2024/03/04 10:00:53;;;;;;;47.73;28.47;;;12.20;99.90;;;;;;5041118;28;20226;-63
2024/03/04 10:03:20;;;;;;;40.77;26.23;;;12.10;99.90;;;;;;5039279;28;20206;-64
2024/03/04 10:05:46;;;;;;;45.97;26.87;;;12.00;99.90;;;;;;5040692;28;20213;-63
2024/03/04 10:08:14;;;;;;;44.57;27.80;;;12.00;99.90;;;;;;5042557;28;20221;-62
2024/03/04 10:10:41;;;;;;;48.07;27.97;;;12.00;99.90;;;;;;5042927;28;20210;-63
2024/03/04 10:13:10;;;;;;;49.33;28.20;;;12.00;99.90;;;;;;5039089;28;20647;-67
2024/03/04 10:15:36;;;;;;;51.23;28.23;;;12.20;99.90;;;;;;5039445;28;20210;-63
2024/03/04 10:18:10;;;;;;;51.63;28.07;;;12.30;99.90;;;;;;5042485;28;20229;-63
2024/03/04 10:20:38;;;;;;;43.27;27.03;;;12.40;99.90;;;;;;5043009;28;20308;-63
2024/03/04 10:23:05;;;;;;;49.20;27.43;;;12.60;99.90;;;;;;5039351;28;20648;-59
2024/03/04 10:25:33;;;;;;;51.73;27.00;;;12.70;99.90;;;;;;5039694;28;20205;-63
2024/03/04 10:28:00;;;;;;;50.37;27.80;;;12.80;99.90;;;;;;5042057;28;20246;-60
2024/03/04 10:30:27;;;;;;;51.33;27.43;;;13.00;99.90;;;;;;5042978;28;20687;-61
2024/03/04 10:32:55;;;;;;;50.17;27.63;;;13.20;99.90;;;;;;5041063;28;20205;-61
2024/03/04 10:35:22;;;;;;;50.50;27.10;;;13.20;99.90;;;;;;5039835;28;20210;-60
2024/03/04 10:37:50;;;;;;;47.57;28.80;;;13.10;99.90;;;;;;5040505;28;20226;-60
2024/03/04 10:40:20;;;;;;;44.87;27.07;;;13.30;99.90;;;;;;5042875;28;20702;-61
2024/03/04 10:42:48;;;;;;;45.80;26.40;;;13.20;99.90;;;;;;5041819;28;20686;-61
2024/03/04 10:45:15;;;;;;;41.33;26.07;;;13.20;99.90;;;;;;5039765;28;20210;-61
2024/03/04 10:47:44;;;;;;;45.33;25.27;;;13.10;99.90;;;;;;5039425;28;20272;-61
2024/03/04 10:50:12;;;;;;;47.87;26.77;;;13.00;99.90;;;;;;5042833;28;20197;-61
2024/03/04 10:52:39;;;;;;;45.57;25.60;;;12.80;99.90;;;;;;5042591;28;20694;-59
2024/03/04 10:55:06;;;;;;;49.20;26.03;;;12.80;99.90;;;;;;5039438;28;20203;-62
2024/03/04 10:57:34;;;;;;;44.30;25.30;;;12.80;99.90;;;;;;5039427;28;20233;-59
2024/03/04 11:00:17;;;;;;;44.23;26.00;;;12.70;99.90;;;;;;5041973;28;20210;-59
2024/03/04 11:02:51;;;;;;;50.60;27.63;;;12.50;99.90;;;;;;5042024;28;20584;-59
2024/03/04 11:05:21;;;;;;;47.93;26.43;;;12.60;99.90;;;;;;5039104;28;20205;-61
2024/03/04 11:07:50;;;;;;;44.30;25.77;;;12.70;99.90;;;;;;5039906;28;20223;-59
2024/03/04 11:10:25;;;;;;;48.77;27.00;;;12.80;99.90;;;;;;5042334;28;20705;-59
2024/03/04 11:13:05;;;;;;;42.97;25.07;;;13.00;99.90;;;;;;5040849;28;20237;-60
2024/03/04 11:15:37;;;;;;;38.47;24.93;;;13.30;99.90;;;;;;5039138;28;20214;-61
2024/03/04 11:18:08;;;;;;;39.23;24.67;;;13.50;99.90;;;;;;5041876;28;20222;-60
2024/03/04 11:20:41;;;;;;;39.43;24.47;;;13.60;99.90;;;;;;5045078;28;20221;-61
2024/03/04 11:23:09;;;;;;;40.37;26.17;;;13.80;99.90;;;;;;5034460;28;20256;-60
2024/03/04 11:25:36;;;;;;;39.33;24.70;;;13.90;99.90;;;;;;5042555;28;20264;-59
2024/03/04 11:28:04;;;;;;;42.67;27.10;;;13.90;99.90;;;;;;5045132;28;20725;-59
2024/03/04 11:30:31;;;;;;;38.00;25.63;;;13.80;99.90;;;;;;5046039;28;20202;-60
2024/03/04 11:33:38;;;;;;;35.07;23.73;;;13.70;99.90;;;;;;5043582;28;20309;-60
2024/03/04 11:36:05;;;;;;;35.97;24.23;;;13.60;99.90;;;;;;5045331;28;20698;-59
2024/03/04 11:38:40;;;;;;;39.00;24.60;;;13.70;99.90;;;;;;5045630;28;20670;-59
2024/03/04 11:41:07;;;;;;;37.87;24.10;;;13.80;99.90;;;;;;5041996;28;20634;-59
2024/03/04 11:43:48;;;;;;;39.20;24.60;;;13.90;99.90;;;;;;5041957;28;20625;-59
2024/03/04 11:46:18;;;;;;;35.63;24.67;;;14.00;99.90;;;;;;5035009;28;20238;-59
2024/03/04 11:48:47;;;;;;;36.03;24.47;;;14.10;99.90;;;;;;5041888;28;20742;-60
2024/03/04 11:51:14;;;;;;;40.30;24.77;;;14.30;99.90;;;;;;5045454;28;20741;-59
2024/03/04 11:53:44;;;;;;;38.10;25.10;;;14.40;99.90;;;;;;5044719;28;20210;-59
2024/03/04 11:56:13;;;;;;;38.77;24.80;;;14.40;99.90;;;;;;5034309;28;20210;-59
2024/03/04 11:58:39;;;;;;;36.47;24.23;;;14.30;99.90;;;;;;5041916;28;20325;-61
2024/03/04 12:01:06;;;;;;;40.70;24.93;;;14.30;99.90;;;;;;5044596;28;20653;-58
2024/03/04 12:03:33;;;;;;;39.33;25.67;;;14.00;99.90;;;;;;5045416;28;20212;-60
2024/03/04 12:06:01;;;;;;;36.40;25.63;;;13.90;99.90;;;;;;5042755;28;20636;-59
2024/03/04 12:08:28;;;;;;;41.83;26.03;;;14.00;99.90;;;;;;5041673;28;20325;-57
2024/03/04 12:10:56;;;;;;;44.73;25.43;;;13.80;99.90;;;;;;5043293;28;20206;-58
2024/03/04 12:13:23;;;;;;;41.83;27.10;;;13.70;99.90;;;;;;5044982;28;20213;-58
2024/03/04 12:15:50;;;;;;;38.43;26.40;;;13.60;99.90;;;;;;5044035;28;20214;-58
2024/03/04 12:18:16;;;;;;;41.13;25.97;;;13.60;99.90;;;;;;5041164;28;20226;-58
2024/03/04 12:20:46;;;;;;;47.57;27.43;;;13.60;99.90;;;;;;5038654;28;20225;-59
2024/03/04 12:23:15;;;;;;;40.83;25.37;;;13.70;99.90;;;;;;5028931;28;20671;-61
2024/03/04 12:25:43;;;;;;;35.30;25.47;;;13.80;99.90;;;;;;5041328;28;20294;-61
2024/03/04 12:28:17;;;;;;;43.23;29.43;;;13.80;99.90;;;;;;5033373;28;20347;-63
2024/03/04 12:30:44;;;;;;;43.37;26.43;;;13.90;99.90;;;;;;5035891;28;20279;-59
2024/03/04 12:33:10;;;;;;;42.37;23.17;;;14.00;99.90;;;;;;5040376;28;20482;-59